Time;durP1;ratioP1;P1;durP2;ratioP2;P2;SDS_P1;SDS_P2;PMS_P1;PMS_P2;Temp;Humidity;BMP_temperature;BMP_pressure;BME280_temperature;BME280_humidity;BME280_pressure;Samples;Min_cycle;Max_cycle;Signal;HPM_P1;HPM_P2
2022/07/15 00:00:20;;;;;;;6.55;1.48;;;;;;;16.83;100.00;102200.59;4759950;29;20056;-63
2022/07/15 00:02:47;;;;;;;4.63;1.38;;;;;;;16.73;100.00;102205.94;4757831;30;20597;-64
2022/07/15 00:05:14;;;;;;;6.80;1.75;;;;;;;16.66;100.00;102212.81;4757345;30;20065;-64
2022/07/15 00:07:41;;;;;;;5.07;1.70;;;;;;;16.60;100.00;102214.25;4758324;30;20058;-64
2022/07/15 00:10:14;;;;;;;8.68;2.10;;;;;;;16.58;100.00;102209.13;4744962;30;20066;-64
2022/07/15 00:12:41;;;;;;;8.10;2.00;;;;;;;16.54;100.00;102215.72;4755135;30;20095;-66
2022/07/15 00:15:08;;;;;;;8.55;1.90;;;;;;;16.40;100.00;102206.47;4749806;30;20059;-65
2022/07/15 00:17:35;;;;;;;5.68;1.90;;;;;;;16.37;100.00;102212.09;4765072;30;20490;-65
2022/07/15 00:20:03;;;;;;;5.22;1.40;;;;;;;16.39;100.00;102206.66;4759496;30;20060;-65
2022/07/15 00:22:29;;;;;;;7.57;1.48;;;;;;;16.35;100.00;102207.94;4757117;30;20070;-65
2022/07/15 00:24:55;;;;;;;11.30;2.13;;;;;;;16.33;100.00;102204.59;4763889;30;20060;-65
2022/07/15 00:27:22;;;;;;;5.40;1.70;;;;;;;16.34;100.00;102212.38;4750728;29;20062;-66
2022/07/15 00:29:49;;;;;;;5.75;1.38;;;;;;;16.32;100.00;102213.50;4759789;30;20059;-65
2022/07/15 00:32:15;;;;;;;6.72;1.58;;;;;;;16.32;100.00;102213.50;4754172;30;20146;-65
2022/07/15 00:34:42;;;;;;;6.72;1.52;;;;;;;16.26;100.00;102204.34;4760681;30;20788;-65
2022/07/15 00:37:08;;;;;;;5.03;1.70;;;;;;;16.20;100.00;102204.94;4757387;30;20407;-64
2022/07/15 00:39:35;;;;;;;7.43;2.00;;;;;;;16.17;100.00;102211.38;4745663;30;20055;-65
2022/07/15 00:42:01;;;;;;;8.65;1.88;;;;;;;16.19;100.00;102201.47;4754019;30;20052;-65
2022/07/15 00:44:28;;;;;;;11.02;1.80;;;;;;;16.18;100.00;102204.28;4750552;30;20060;-65
2022/07/15 00:46:55;;;;;;;5.70;1.52;;;;;;;16.14;100.00;102209.03;4756631;30;20052;-64
2022/07/15 00:49:22;;;;;;;6.88;2.00;;;;;;;16.10;100.00;102209.47;4743417;30;20063;-64
2022/07/15 00:51:54;;;;;;;5.68;1.63;;;;;;;16.02;100.00;102210.22;4755941;30;20055;-64
2022/07/15 00:54:27;;;;;;;5.50;1.65;;;;;;;15.95;100.00;102203.84;4755155;30;20619;-64
2022/07/15 00:56:57;;;;;;;5.63;1.58;;;;;;;15.89;100.00;102207.09;4754731;29;20056;-65
2022/07/15 00:59:29;;;;;;;8.27;1.80;;;;;;;15.88;100.00;102202.78;4765688;30;20164;-65
2022/07/15 01:01:56;;;;;;;6.22;1.80;;;;;;;15.84;100.00;102211.97;4746235;30;20434;-65
2022/07/15 01:04:24;;;;;;;6.55;1.67;;;;;;;15.81;100.00;102208.66;4753899;30;20165;-64
2022/07/15 01:06:50;;;;;;;5.18;1.55;;;;;;;15.76;100.00;102210.91;4747650;30;20056;-65
2022/07/15 01:09:19;;;;;;;2.85;1.45;;;;;;;15.78;100.00;102208.97;4762965;30;20059;-65
2022/07/15 01:11:45;;;;;;;;;;;;;;;15.79;100.00;102205.31;4764501;30;20090;-65
2022/07/15 01:14:12;;;;;;;3.60;1.70;;;;;;;15.80;100.00;102204.34;4745977;30;19930;-65
2022/07/15 01:16:38;;;;;;;6.80;1.83;;;;;;;15.75;100.00;102205.78;4756318;30;20370;-64
2022/07/15 01:19:05;;;;;;;5.70;2.00;;;;;;;15.78;100.00;102200.19;4748340;30;20426;-65
2022/07/15 01:21:31;;;;;;;6.80;1.98;;;;;;;15.79;100.00;102202.66;4755113;30;20065;-65
2022/07/15 01:23:58;;;;;;;9.50;2.30;;;;;;;15.79;100.00;102207.13;4759797;30;20063;-65
2022/07/15 01:26:25;;;;;;;8.80;1.60;;;;;;;15.78;100.00;102211.59;4763154;29;20087;-65
2022/07/15 01:28:51;;;;;;;7.78;1.80;;;;;;;15.77;100.00;102206.47;4760586;30;20336;-64
2022/07/15 01:31:17;;;;;;;9.65;2.13;;;;;;;15.81;100.00;102210.47;4747158;30;20092;-63
2022/07/15 01:33:44;;;;;;;9.85;1.83;;;;;;;15.85;100.00;102203.91;4760158;30;20063;-64
2022/07/15 01:36:10;;;;;;;8.15;2.40;;;;;;;15.86;100.00;102202.94;4751469;30;20553;-64
2022/07/15 01:38:37;;;;;;;7.25;2.15;;;;;;;15.88;100.00;102200.97;4758247;30;20430;-65
2022/07/15 01:41:14;;;;;;;8.55;2.00;;;;;;;15.89;100.00;102202.63;4757243;30;20530;-65
2022/07/15 01:43:40;;;;;;;9.38;1.90;;;;;;;15.90;100.00;102214.88;4744301;30;20080;-64
2022/07/15 01:46:07;;;;;;;6.43;1.70;;;;;;;15.90;100.00;102209.59;4757386;29;20514;-64
2022/07/15 01:51:18;;;;;;;8.43;2.10;;;;;;;15.83;100.00;102203.22;4750729;30;20059;-64
2022/07/15 01:53:45;;;;;;;8.13;1.92;;;;;;;15.80;100.00;102209.66;4756404;30;20051;-64
2022/07/15 01:56:11;;;;;;;6.18;1.90;;;;;;;15.79;100.00;102207.97;4760761;29;20458;-64
2022/07/15 01:58:38;;;;;;;5.95;1.63;;;;;;;15.81;100.00;102213.13;4762838;30;20078;-65
2022/07/15 02:01:04;;;;;;;9.38;1.90;;;;;;;15.82;100.00;102212.16;4751067;29;20055;-65
2022/07/15 02:03:31;;;;;;;7.15;1.95;;;;;;;15.83;100.00;102216.44;4942541;24;20080;-65
2022/07/15 02:05:57;;;;;;;5.55;1.60;;;;;;;15.84;100.00;102217.28;4865301;29;20155;-65
2022/07/15 02:08:24;;;;;;;9.35;1.90;;;;;;;15.80;100.00;102220.22;4876109;29;20068;-65
2022/07/15 02:10:50;;;;;;;5.45;1.52;;;;;;;15.78;100.00;102214.25;4887363;29;20584;-65
2022/07/15 02:13:17;;;;;;;10.68;2.15;;;;;;;15.72;100.00;102200.72;4877455;29;20087;-65
2022/07/15 02:15:44;;;;;;;6.80;1.52;;;;;;;15.76;100.00;102221.50;4884006;29;20053;-65
2022/07/15 02:18:10;;;;;;;5.55;1.83;;;;;;;15.77;100.00;102212.56;4885464;29;20044;-65
2022/07/15 02:20:37;;;;;;;4.55;1.52;;;;;;;15.84;100.00;102215.47;4873511;29;20425;-64
2022/07/15 02:23:04;;;;;;;8.57;1.65;;;;;;;15.81;100.00;102213.94;4880821;29;20056;-65
2022/07/15 02:25:33;;;;;;;6.88;1.55;;;;;;;15.78;100.00;102205.50;4879169;29;20338;-65
2022/07/15 02:28:03;;;;;;;6.25;1.80;;;;;;;15.82;100.00;102217.44;4884695;29;20512;-65
2022/07/15 02:30:34;;;;;;;7.38;1.70;;;;;;;15.85;100.00;102209.19;4879173;29;20540;-66
2022/07/15 02:33:01;;;;;;;9.88;1.70;;;;;;;15.83;100.00;102216.44;4882930;29;20136;-65
2022/07/15 02:35:28;;;;;;;5.25;1.35;;;;;;;15.82;100.00;102212.97;4876202;29;20056;-65
2022/07/15 02:37:55;;;;;;;5.50;1.80;;;;;;;15.83;100.00;102213.81;4873838;29;20044;-64
2022/07/15 02:40:22;;;;;;;6.55;1.25;;;;;;;15.89;100.00;102217.69;4884330;29;20057;-65
2022/07/15 02:42:50;;;;;;;8.18;1.83;;;;;;;15.89;100.00;102215.03;4876914;29;20760;-65
2022/07/15 02:45:19;;;;;;;5.90;1.40;;;;;;;15.89;100.00;102215.84;4884854;29;20059;-65
2022/07/15 02:47:46;;;;;;;5.03;1.30;;;;;;;15.91;100.00;102219.19;4877007;29;20131;-64
2022/07/15 02:50:14;;;;;;;6.40;1.35;;;;;;;15.92;100.00;102217.41;4878351;29;20418;-65
2022/07/15 02:52:41;;;;;;;4.80;1.30;;;;;;;15.92;100.00;102220.88;4892990;29;20056;-65
2022/07/15 02:55:09;;;;;;;8.32;1.52;;;;;;;15.88;100.00;102218.66;4876476;29;20056;-65
2022/07/15 02:57:36;;;;;;;4.65;1.40;;;;;;;15.84;100.00;102218.13;4884003;29;20044;-64
2022/07/15 03:00:05;;;;;;;5.32;1.70;;;;;;;15.88;100.00;102214.22;4876008;29;20052;-65
2022/07/15 03:02:32;;;;;;;6.38;1.67;;;;;;;15.89;100.00;102217.69;4859461;29;20112;-64
2022/07/15 03:04:58;;;;;;;7.70;1.48;;;;;;;15.89;100.00;102215.03;4884237;29;20078;-64
2022/07/15 03:07:25;;;;;;;6.70;1.50;;;;;;;15.90;100.00;102225.47;4877039;29;20421;-64
2022/07/15 03:09:51;;;;;;;8.25;1.92;;;;;;;15.92;100.00;102222.69;4885286;29;20441;-65
2022/07/15 03:12:18;;;;;;;6.72;1.40;;;;;;;15.92;100.00;102228.81;4871309;29;20075;-65
2022/07/15 03:14:44;;;;;;;7.30;1.35;;;;;;;15.97;100.00;102231.00;4878611;29;20059;-65
2022/07/15 03:17:10;;;;;;;7.70;1.75;;;;;;;15.96;100.00;102235.47;4875289;29;20055;-65
2022/07/15 03:19:37;;;;;;;6.85;1.50;;;;;;;16.00;100.00;102242.13;4881412;29;20061;-66
2022/07/15 03:22:04;;;;;;;7.53;1.63;;;;;;;15.98;100.00;102243.25;4884477;29;20410;-65
2022/07/15 03:24:30;;;;;;;6.38;1.77;;;;;;;15.97;100.00;102239.75;4875472;29;20421;-65
2022/07/15 03:26:56;;;;;;;5.88;1.70;;;;;;;15.96;100.00;102246.06;4884645;29;20061;-65
2022/07/15 03:29:24;;;;;;;6.80;1.40;;;;;;;15.92;100.00;102243.84;4871791;29;20048;-65
2022/07/15 03:31:50;;;;;;;5.47;1.50;;;;;;;15.95;100.00;102249.66;4879303;29;20177;-65
2022/07/15 03:34:17;;;;;;;5.07;1.50;;;;;;;15.91;100.00;102250.13;4882185;29;20060;-65
2022/07/15 03:36:44;;;;;;;8.25;1.60;;;;;;;15.94;100.00;102247.19;4875840;29;20524;-65
2022/07/15 03:39:10;;;;;;;5.28;1.67;;;;;;;15.91;100.00;102240.34;4884232;29;20052;-65
2022/07/15 03:41:37;;;;;;;9.27;1.63;;;;;;;15.92;100.00;102247.31;4876292;29;20052;-64
2022/07/15 03:44:04;;;;;;;8.60;1.80;;;;;;;15.92;100.00;102251.78;4878057;29;20059;-63
2022/07/15 03:46:31;;;;;;;4.05;1.38;;;;;;;15.90;100.00;102244.00;4878420;29;20064;-64
2022/07/15 03:48:57;;;;;;;6.00;1.40;;;;;;;15.84;100.00;102255.16;4883548;29;20100;-64
2022/07/15 03:51:30;;;;;;;8.63;1.88;;;;;;;15.79;100.00;102255.59;4893566;29;20062;-64
2022/07/15 03:53:58;;;;;;;5.10;1.42;;;;;;;15.75;100.00;102269.25;4878950;29;20509;-64
2022/07/15 03:56:25;;;;;;;6.82;1.65;;;;;;;15.68;100.00;102269.00;4883844;29;20064;-64
2022/07/15 03:58:52;;;;;;;6.10;1.67;;;;;;;15.62;100.00;102280.13;4874936;29;20061;-64
2022/07/15 04:01:20;;;;;;;8.00;1.73;;;;;;;15.55;100.00;102279.88;4887110;29;20099;-63
2022/07/15 04:03:48;;;;;;;;;;;;;;;15.52;100.00;102284.59;4888073;29;20371;-63
2022/07/15 04:06:15;;;;;;;5.83;1.57;;;;;;;15.45;100.00;102276.44;4853471;29;20406;-63
2022/07/15 04:08:43;;;;;;;8.48;1.95;;;;;;;15.43;100.00;102283.66;4887613;29;20048;-65
2022/07/15 04:11:10;;;;;;;6.70;1.63;;;;;;;15.43;100.00;102278.38;4873776;29;20489;-64
2022/07/15 04:13:38;;;;;;;8.70;2.42;;;;;;;15.42;100.00;102279.34;4882341;29;20053;-64
2022/07/15 04:16:06;;;;;;;8.65;1.80;;;;;;;15.43;100.00;102281.84;4878742;29;20056;-64
2022/07/15 04:18:33;;;;;;;5.05;1.70;;;;;;;15.38;100.00;102270.84;4884907;29;20051;-64
2022/07/15 04:21:00;;;;;;;8.10;2.33;;;;;;;15.35;100.00;102284.38;4887408;29;20063;-64
2022/07/15 04:23:27;;;;;;;5.55;1.52;;;;;;;15.33;100.00;102285.50;4874986;29;20067;-63
2022/07/15 04:25:54;;;;;;;7.85;1.85;;;;;;;15.35;100.00;102288.84;4880521;29;20197;-64
2022/07/15 04:28:21;;;;;;;10.50;2.97;;;;;;;15.31;100.00;102280.34;4878497;29;20056;-64
2022/07/15 04:30:49;;;;;;;6.55;1.73;;;;;;;15.35;100.00;102287.03;4887144;29;20052;-63
2022/07/15 04:33:15;;;;;;;5.67;1.57;;;;;;;15.33;100.00;102278.41;4878770;29;20082;-62
2022/07/15 04:35:42;;;;;;;6.43;1.70;;;;;;;15.38;100.00;102285.91;4885106;29;20361;-64
2022/07/15 04:38:09;;;;;;;9.68;2.22;;;;;;;15.40;100.00;102287.41;4881375;29;20056;-63
2022/07/15 04:40:36;;;;;;;5.28;1.60;;;;;;;15.38;100.00;102284.06;4875033;29;21137;-65
2022/07/15 04:43:09;;;;;;;8.40;1.90;;;;;;;15.38;100.00;102289.38;4886614;29;20056;-64
2022/07/15 04:45:36;;;;;;;5.40;1.40;;;;;;;15.41;100.00;102293.56;4878099;29;20086;-65
2022/07/15 04:50:45;;;;;;;7.55;1.85;;;;;;;15.39;100.00;102295.50;4890212;29;20059;-66
2022/07/15 04:50:51;;;;;;;8.23;1.50;;;;;;;15.40;100.00;102289.22;4878258;29;20686;-66
2022/07/15 04:53:21;;;;;;;10.98;1.80;;;;;;;15.39;100.00;102291.03;4880634;29;20056;-65
2022/07/15 04:55:48;;;;;;;5.55;1.13;;;;;;;15.31;100.00;102298.84;4882314;29;20063;-65
2022/07/15 04:58:15;;;;;;;7.25;1.70;;;;;;;15.33;100.00;102298.72;4876507;29;20481;-65
2022/07/15 05:00:44;;;;;;;8.05;1.50;;;;;;;15.24;100.00;102297.75;4884652;29;20052;-65
2022/07/15 05:03:11;;;;;;;8.65;1.52;;;;;;;15.16;100.00;102300.25;4876948;29;20057;-65
2022/07/15 05:05:37;;;;;;;6.68;1.58;;;;;;;15.21;100.00;102293.59;4884107;29;20454;-65
2022/07/15 05:08:04;;;;;;;9.18;1.60;;;;;;;15.22;100.00;102299.69;4855736;29;20311;-64
2022/07/15 05:10:33;;;;;;;3.75;1.20;;;;;;;15.26;100.00;102302.91;4884921;29;20359;-65
2022/07/15 05:13:02;;;;;;;6.82;1.58;;;;;;;15.27;100.00;102302.75;4886054;29;20062;-64
2022/07/15 05:15:28;;;;;;;4.97;1.17;;;;;;;15.31;100.00;102300.66;4877619;29;20111;-65
2022/07/15 05:17:55;;;;;;;7.13;1.38;;;;;;;15.35;100.00;102304.69;4885662;29;20052;-65
2022/07/15 05:20:21;;;;;;;6.63;1.45;;;;;;;15.33;100.00;102301.38;4873215;29;20060;-65
2022/07/15 05:22:49;;;;;;;8.20;1.60;;;;;;;15.40;100.00;102307.72;4883080;29;20062;-66
2022/07/15 05:25:16;;;;;;;7.20;1.73;;;;;;;15.34;100.00;102306.50;4885972;29;20216;-66
2022/07/15 05:27:44;;;;;;;7.35;1.50;;;;;;;15.35;100.00;102300.25;4880916;29;20098;-65
2022/07/15 05:30:12;;;;;;;10.10;2.28;;;;;;;15.38;100.00;102307.88;4884434;29;20053;-65
2022/07/15 05:32:39;;;;;;;;;;;;;;;15.46;100.00;102301.06;4877949;29;20091;-66
2022/07/15 05:35:06;;;;;;;12.55;2.78;;;;;;;15.49;100.00;102306.91;4879605;29;19934;-66
2022/07/15 05:37:33;;;;;;;6.53;1.40;;;;;;;15.52;100.00;102308.41;4872973;29;20371;-66
2022/07/15 05:39:59;;;;;;;16.95;1.85;;;;;;;15.52;100.00;102311.88;4885180;29;20056;-66
2022/07/15 05:42:26;;;;;;;5.30;1.40;;;;;;;15.51;100.00;102302.28;4869454;29;20953;-67
2022/07/15 05:44:52;;;;;;;4.40;1.50;;;;;;;15.59;100.00;102312.16;4877767;29;20058;-67
2022/07/15 05:47:19;;;;;;;10.25;2.35;;;;;;;15.63;100.00;102308.25;4886775;29;20063;-67
2022/07/15 05:49:45;;;;;;;11.40;1.30;;;;;;;15.68;100.00;102313.09;4871185;29;20303;-66
2022/07/15 05:52:11;;;;;;;8.63;1.55;;;;;;;15.60;100.00;102308.53;4885660;29;20472;-66
2022/07/15 05:54:38;;;;;;;9.13;2.00;;;;;;;15.58;100.00;102307.84;4879078;29;20090;-65
2022/07/15 05:57:05;;;;;;;6.30;1.40;;;;;;;15.65;100.00;102310.75;4884032;29;20056;-66
2022/07/15 05:59:31;;;;;;;6.45;2.15;;;;;;;15.68;100.00;102305.16;4885228;29;20049;-65
2022/07/15 06:01:58;;;;;;;7.50;1.58;;;;;;;15.70;100.00;102311.16;4870059;29;20512;-66
2022/07/15 06:04:26;;;;;;;8.57;1.45;;;;;;;15.69;100.00;102299.75;4881606;29;20108;-66
2022/07/15 06:06:55;;;;;;;8.68;1.27;;;;;;;15.77;100.00;102297.22;4875763;29;20056;-66
2022/07/15 06:09:22;;;;;;;5.82;1.17;;;;;;;15.79;100.00;102305.03;4884409;29;20053;-67
2022/07/15 06:11:48;;;;;;;8.70;1.50;;;;;;;15.86;100.00;102306.13;4868346;29;20075;-66
2022/07/15 06:14:15;;;;;;;6.72;1.20;;;;;;;15.91;100.00;102300.38;4872878;29;20286;-66
2022/07/15 06:16:42;;;;;;;5.68;1.40;;;;;;;15.95;100.00;102302.59;4879463;29;20057;-66
2022/07/15 06:19:10;;;;;;;7.00;1.52;;;;;;;15.98;100.00;102306.78;4876623;29;20052;-65
2022/07/15 06:21:37;;;;;;;5.47;1.50;;;;;;;15.99;100.00;102304.00;4885566;29;20088;-66
2022/07/15 06:24:04;;;;;;;8.73;1.75;;;;;;;16.01;100.00;102302.03;4877156;29;20096;-65
2022/07/15 06:26:30;;;;;;;6.38;1.20;;;;;;;16.06;100.00;102304.22;4884265;29;20059;-65
2022/07/15 06:28:56;;;;;;;8.30;1.52;;;;;;;16.11;100.00;102299.34;4880817;29;20079;-65
2022/07/15 06:31:23;;;;;;;8.02;1.30;;;;;;;16.16;100.00;102299.72;4853214;29;20055;-66
2022/07/15 06:33:49;;;;;;;8.55;1.35;;;;;;;16.16;100.00;102291.78;4882775;29;20104;-65
2022/07/15 06:36:16;;;;;;;7.10;1.17;;;;;;;16.23;100.00;102291.19;4876746;29;20070;-65
2022/07/15 06:38:42;;;;;;;8.98;1.30;;;;;;;16.24;100.00;102303.44;4884361;29;20048;-65
2022/07/15 06:41:09;;;;;;;6.53;1.63;;;;;;;16.29;100.00;102304.69;4882290;29;20406;-65
2022/07/15 06:43:35;;;;;;;4.68;1.30;;;;;;;16.32;100.00;102308.84;4873996;29;20063;-65
2022/07/15 06:46:02;;;;;;;7.45;1.20;;;;;;;16.34;100.00;102298.94;4879498;29;20491;-65
2022/07/15 06:48:28;;;;;;;5.80;1.45;;;;;;;16.39;100.00;102304.63;4875931;29;20115;-65
2022/07/15 06:50:55;;;;;;;5.32;1.17;;;;;;;16.39;100.00;102300.16;4884505;29;20065;-65
2022/07/15 06:53:21;;;;;;;4.45;0.80;;;;;;;16.43;100.00;102294.56;4877044;29;20060;-65
2022/07/15 06:55:47;;;;;;;6.32;0.98;;;;;;;16.43;100.00;102307.81;4880221;29;20064;-65
2022/07/15 06:58:14;;;;;;;9.15;1.05;;;;;;;16.47;100.00;102296.75;4876063;29;20395;-65
2022/07/15 07:00:40;;;;;;;6.38;1.02;;;;;;;16.53;100.00;102298.81;4872050;29;20425;-65
2022/07/15 07:03:07;;;;;;;7.70;1.30;;;;;;;16.57;100.00;102302.00;4881748;29;20056;-66
2022/07/15 07:05:33;;;;;;;5.07;1.00;;;;;;;16.60;100.00;102305.19;4877820;29;20067;-66
2022/07/15 07:07:59;;;;;;;4.70;1.13;;;;;;;16.66;100.00;102301.09;4883537;29;20063;-66
2022/07/15 07:10:26;;;;;;;8.05;1.23;;;;;;;16.71;100.00;102301.47;4872595;29;20106;-66
2022/07/15 07:12:53;;;;;;;4.90;1.20;;;;;;;16.78;100.00;102301.72;4875671;29;20076;-66
2022/07/15 07:15:21;;;;;;;7.05;1.20;;;;;;;16.79;100.00;102308.66;4884157;29;20064;-66
2022/07/15 07:17:47;;;;;;;6.00;1.75;;;;;;;16.85;100.00;102307.25;4876269;29;20063;-66
2022/07/15 07:20:14;;;;;;;9.15;1.35;;;;;;;16.90;100.00;102307.66;4884036;29;20684;-66
2022/07/15 07:22:40;;;;;;;6.95;1.05;;;;;;;16.89;100.00;102305.97;4878748;29;20057;-67
2022/07/15 07:25:07;;;;;;;5.55;1.15;;;;;;;16.90;100.00;102311.13;4882805;29;20477;-66
2022/07/15 07:27:33;;;;;;;4.70;1.00;;;;;;;16.96;100.00;102315.81;4883326;29;20547;-66
2022/07/15 07:30:02;;;;;;;8.05;0.95;;;;;;;16.97;100.00;102306.91;4879475;29;20056;-66
2022/07/15 07:32:29;;;;;;;7.10;1.20;;;;;;;17.02;100.00;102318.84;4887649;29;20063;-66
2022/07/15 07:34:58;;;;;;;5.38;0.85;;;;;;;17.08;100.00;102315.59;4878217;29;20082;-66
2022/07/15 07:37:26;;;;;;;4.15;1.10;;;;;;;17.07;100.00;102317.41;4886163;29;20539;-66
2022/07/15 07:39:53;;;;;;;3.63;0.90;;;;;;;17.12;100.00;102314.28;4855808;29;20056;-65
2022/07/15 07:42:19;;;;;;;4.93;0.90;;;;;;;17.20;100.00;102325.78;4889676;29;20560;-64
2022/07/15 07:44:46;;;;;;;4.40;1.00;;;;;;;17.27;100.00;102333.13;4887936;29;20079;-65
2022/07/15 07:47:12;;;;;;;5.30;0.90;;;;;;;17.33;100.00;102329.88;4879976;29;20074;-65
2022/07/15 07:49:40;;;;;;;7.35;1.00;;;;;;;17.35;100.00;102320.78;4887795;29;20059;-65
2022/07/15 07:52:06;;;;;;;4.70;0.93;;;;;;;17.45;100.00;102322.50;4874924;29;20049;-65
2022/07/15 07:54:33;;;;;;;1.95;0.70;;;;;;;17.49;100.00;102311.41;4883561;29;20060;-66
2022/07/15 07:56:59;;;;;;;7.57;1.17;;;;;;;17.49;100.00;102313.25;4879939;29;20058;-66
2022/07/15 07:59:26;;;;;;;3.25;0.80;;;;;;;17.49;96.63;102319.38;4887235;29;20060;-66
2022/07/15 08:01:52;;;;;;;4.82;0.73;;;;;;;17.54;99.72;102303.84;4887579;29;20410;-66
2022/07/15 08:04:19;;;;;;;4.50;1.02;;;;;;;17.61;98.48;102312.00;4878573;29;20076;-66
2022/07/15 08:06:45;;;;;;;5.90;0.77;;;;;;;17.65;97.65;102309.84;4883329;29;20509;-67
2022/07/15 08:09:12;;;;;;;2.30;0.90;;;;;;;17.68;97.07;102318.34;4874382;29;20059;-66
2022/07/15 08:11:38;;;;;;;5.82;1.70;;;;;;;17.75;98.47;102303.44;4887381;29;20549;-66
2022/07/15 08:14:05;;;;;;;3.83;0.88;;;;;;;17.88;99.93;102311.00;4887321;29;20469;-66
2022/07/15 08:16:35;;;;;;;5.40;1.10;;;;;;;18.03;97.10;102310.41;4878848;29;20461;-66
2022/07/15 08:19:01;;;;;;;4.85;0.98;;;;;;;18.17;94.43;102323.91;4886610;29;20092;-66
2022/07/15 08:21:28;;;;;;;3.55;0.90;;;;;;;18.41;96.34;102314.38;4872826;29;20091;-65
2022/07/15 08:23:54;;;;;;;5.00;1.15;;;;;;;18.41;88.51;102318.88;4887961;29;20056;-66
2022/07/15 08:26:23;;;;;;;3.47;0.70;;;;;;;18.49;92.62;102308.25;4880404;29;20403;-66
2022/07/15 08:28:51;;;;;;;5.78;1.20;;;;;;;18.60;93.29;102317.72;4886939;29;20445;-66
2022/07/15 08:31:39;;;;;;;4.10;0.70;;;;;;;18.65;94.31;102310.94;4888333;29;20052;-66
2022/07/15 08:34:07;;;;;;;8.52;1.35;;;;;;;18.73;93.63;102315.44;4867905;29;20052;-66
2022/07/15 08:36:34;;;;;;;3.65;1.05;;;;;;;18.82;94.32;102319.81;4882929;29;20057;-66
2022/07/15 08:39:01;;;;;;;5.78;1.17;;;;;;;18.87;92.71;102322.78;4879154;29;20052;-65
2022/07/15 08:41:28;;;;;;;6.25;1.02;;;;;;;18.95;89.39;102314.84;4887160;29;20061;-65
2022/07/15 08:43:55;;;;;;;6.00;1.13;;;;;;;19.03;88.15;102321.13;4882469;29;20425;-65
2022/07/15 08:46:25;;;;;;;6.88;1.05;;;;;;;19.20;87.25;102321.97;4884490;29;20526;-66
2022/07/15 08:48:55;;;;;;;5.43;0.77;;;;;;;19.27;84.76;102323.78;4880341;29;20560;-65
2022/07/15 08:51:24;;;;;;;5.22;1.02;;;;;;;19.32;82.51;102317.97;4876208;29;20427;-64
2022/07/15 08:53:52;;;;;;;7.57;1.15;;;;;;;19.49;84.15;102314.28;4887241;29;20052;-63
2022/07/15 08:56:19;;;;;;;6.82;1.08;;;;;;;19.71;85.86;102312.75;4879421;29;20056;-64
2022/07/15 08:58:46;;;;;;;4.70;0.83;;;;;;;19.81;80.55;102319.72;4886695;29;20430;-64
2022/07/15 09:01:24;;;;;;;3.30;0.73;;;;;;;19.87;80.44;102317.19;4881484;29;20084;-64
2022/07/15 09:03:51;;;;;;;3.55;0.82;;;;;;;19.85;80.30;102321.03;4876126;29;20135;-65
2022/07/15 09:06:51;;;;;;;3.00;0.80;;;;;;;19.78;80.71;102318.25;4886289;29;20056;-64
2022/07/15 09:09:31;;;;;;;6.47;1.13;;;;;;;19.79;81.98;102311.09;4847918;29;20053;-64
2022/07/15 09:12:02;;;;;;;4.72;0.93;;;;;;;19.80;83.97;102315.41;4886129;29;20052;-64
2022/07/15 09:14:44;;;;;;;7.85;0.90;;;;;;;19.85;86.53;102319.22;4874068;29;20147;-64
2022/07/15 09:17:12;;;;;;;7.13;1.33;;;;;;;19.88;85.81;102313.56;4881125;29;20131;-65
2022/07/15 09:20:04;;;;;;;3.10;0.80;;;;;;;19.95;79.25;102308.34;4877642;29;20056;-66
2022/07/15 09:22:33;;;;;;;8.52;1.30;;;;;;;19.96;77.40;102304.69;4883266;29;20056;-62
2022/07/15 09:25:08;;;;;;;6.97;1.08;;;;;;;20.07;79.45;102308.81;4878402;29;20071;-64
2022/07/15 09:27:40;;;;;;;5.05;0.93;;;;;;;20.30;79.89;102307.03;4886597;29;20356;-64
2022/07/15 09:36:14;;;;;;;4.38;1.05;;;;;;;20.65;78.54;102302.19;4889213;29;20451;-64
2022/07/15 09:38:55;;;;;;;4.93;1.30;;;;;;;20.67;78.63;102302.03;4892099;29;20083;-64
2022/07/15 09:41:35;;;;;;;6.15;1.25;;;;;;;20.71;80.89;102300.66;4886272;29;20059;-65
2022/07/15 09:44:09;;;;;;;4.35;0.90;;;;;;;20.78;81.32;102298.94;4872478;29;20112;-65
2022/07/15 09:47:03;;;;;;;4.32;1.02;;;;;;;20.91;79.97;102306.31;4882110;29;20461;-65
2022/07/15 09:49:34;;;;;;;5.15;1.00;;;;;;;21.01;78.91;102309.59;4876919;29;20059;-65
2022/07/15 09:52:07;;;;;;;4.63;1.10;;;;;;;21.05;80.28;102305.56;4885034;29;20437;-65
2022/07/15 09:54:41;;;;;;;5.50;0.98;;;;;;;21.12;75.59;102314.50;4875673;29;20063;-65
2022/07/15 09:57:11;;;;;;;3.88;0.80;;;;;;;21.08;73.81;102313.19;4880292;29;20245;-64
2022/07/15 09:59:37;;;;;;;5.10;1.05;;;;;;;21.14;76.66;102316.97;4865389;29;20048;-65
2022/07/15 10:02:08;;;;;;;3.63;1.00;;;;;;;21.08;71.40;102315.84;4884231;29;20064;-65
2022/07/15 10:04:35;;;;;;;3.97;0.85;;;;;;;20.85;72.26;102315.06;4883001;29;20048;-66
2022/07/15 10:07:03;;;;;;;4.23;0.87;;;;;;;20.90;75.14;102313.50;4874492;29;20059;-65
2022/07/15 10:09:50;;;;;;;;;;;;;;;21.07;76.00;102305.38;4888096;29;20292;-65
2022/07/15 10:12:21;;;;;;;3.80;0.90;;;;;;;21.16;76.63;102306.97;4874076;29;19931;-65
2022/07/15 10:15:04;;;;;;;3.03;0.85;;;;;;;21.29;75.12;102314.34;4884653;29;20064;-65
2022/07/15 10:17:53;;;;;;;4.00;1.00;;;;;;;21.34;74.86;102309.28;4876429;29;20052;-66
2022/07/15 10:20:44;;;;;;;6.30;0.80;;;;;;;21.62;72.87;102303.34;4881911;29;20139;-65
2022/07/15 10:23:24;;;;;;;3.83;0.80;;;;;;;21.66;69.00;102308.16;4876190;29;20059;-65
2022/07/15 10:26:02;;;;;;;3.33;0.70;;;;;;;21.81;66.40;102302.81;4878390;29;20064;-65
2022/07/15 10:28:44;;;;;;;6.80;0.90;;;;;;;22.06;64.43;102302.50;4884460;29;20049;-66
2022/07/15 10:31:18;;;;;;;2.55;0.60;;;;;;;22.57;66.43;102289.13;4876043;29;20063;-65
2022/07/15 10:34:12;;;;;;;1.92;0.95;;;;;;;22.39;64.74;102278.88;4881233;29;20426;-65
2022/07/15 10:36:53;;;;;;;3.60;0.80;;;;;;;22.32;65.34;102283.31;4874698;29;20501;-64
2022/07/15 10:39:21;;;;;;;3.28;0.90;;;;;;;22.44;65.92;102276.47;4879536;29;20502;-64
2022/07/15 10:41:52;;;;;;;6.55;1.27;;;;;;;22.27;66.36;102278.53;4869679;29;20082;-65
2022/07/15 10:44:19;;;;;;;2.78;0.90;;;;;;;22.42;66.48;102274.97;4878837;29;20509;-65
2022/07/15 10:46:46;;;;;;;2.95;0.70;;;;;;;21.98;66.93;102273.25;4880485;29;20071;-65
2022/07/15 10:49:12;;;;;;;2.67;1.05;;;;;;;21.88;67.92;102273.53;4882994;29;20471;-66
2022/07/15 10:51:39;;;;;;;4.13;0.93;;;;;;;21.96;66.90;102262.72;4882087;29;20060;-66
2022/07/15 10:54:09;;;;;;;2.93;0.77;;;;;;;22.44;68.69;102256.91;4869447;29;20060;-66
2022/07/15 10:56:44;;;;;;;3.25;0.90;;;;;;;22.68;66.52;102256.53;4883641;29;20311;-66
2022/07/15 10:59:23;;;;;;;3.03;0.70;;;;;;;22.55;64.23;102256.41;4873155;29;20057;-66
2022/07/15 11:02:11;;;;;;;5.68;0.90;;;;;;;22.40;65.76;102258.31;4888861;29;20052;-66
2022/07/15 11:04:38;;;;;;;4.00;0.63;;;;;;;22.30;65.34;102261.28;4874770;29;20053;-66
2022/07/15 11:07:07;;;;;;;3.30;0.80;;;;;;;22.08;65.36;102255.06;4877546;29;20048;-66
2022/07/15 11:10:02;;;;;;;4.70;0.80;;;;;;;21.95;66.18;102258.38;4875485;29;20100;-66
2022/07/15 11:12:31;;;;;;;3.88;1.00;;;;;;;21.83;68.94;102254.56;4884401;29;20060;-66
2022/07/15 11:15:06;;;;;;;3.20;0.77;;;;;;;21.90;70.25;102253.63;4884917;29;20066;-66
2022/07/15 11:17:32;;;;;;;3.35;0.82;;;;;;;21.90;68.03;102244.78;4876925;29;20054;-66
2022/07/15 11:20:11;;;;;;;5.38;1.10;;;;;;;22.34;66.56;102248.38;4879807;29;20051;-66
2022/07/15 11:22:41;;;;;;;4.70;0.80;;;;;;;22.83;68.33;102247.59;4870412;29;20056;-66
2022/07/15 11:25:20;;;;;;;3.83;1.00;;;;;;;22.81;63.46;102246.97;4884477;29;20094;-66
2022/07/15 11:28:08;;;;;;;4.78;1.00;;;;;;;22.45;64.45;102248.69;4876650;29;20056;-66
2022/07/15 11:30:38;;;;;;;4.63;0.90;;;;;;;22.53;69.09;102245.06;4882961;29;20052;-65
2022/07/15 11:33:10;;;;;;;5.05;0.90;;;;;;;22.38;65.67;102245.13;4878301;29;20060;-66
2022/07/15 11:35:52;;;;;;;5.47;0.88;;;;;;;22.38;66.77;102234.44;4876495;29;20053;-65